Time;durP1;ratioP1;P1;durP2;ratioP2;P2;SDS_P1;SDS_P2;PMS_P1;PMS_P2;Temp;Humidity;BMP_temperature;BMP_pressure;BME280_temperature;BME280_humidity;BME280_pressure;Samples;Min_cycle;Max_cycle;Signal;HPM_P1;HPM_P2
2022/03/25 00:00:26;;;;;;;6.75;4.50;;;;;;;17.31;28.91;97772.94;5134610;27;20482;-32
2022/03/25 00:02:53;;;;;;;6.72;4.72;;;;;;;17.39;28.92;97779.00;5134729;27;20023;-31
2022/03/25 00:05:19;;;;;;;8.60;4.97;;;;;;;17.37;28.69;97787.66;5134556;27;20364;-31
2022/03/25 00:07:45;;;;;;;7.20;4.93;;;;;;;17.33;28.59;97781.50;5134340;27;20022;-31
2022/03/25 00:10:10;;;;;;;8.15;4.57;;;;;;;17.32;28.64;97777.22;5134538;27;20023;-31
2022/03/25 00:12:36;;;;;;;6.55;4.60;;;;;;;17.36;28.30;97777.88;5134435;27;20166;-31
2022/03/25 00:15:03;;;;;;;6.47;4.78;;;;;;;17.31;28.63;97780.44;5134456;27;20494;-32
2022/03/25 00:17:29;;;;;;;6.13;4.50;;;;;;;17.31;28.72;97781.16;5134388;27;20027;-32
2022/03/25 00:19:54;;;;;;;5.20;4.55;;;;;;;17.21;28.71;97776.78;5134505;28;20025;-32
2022/03/25 00:22:20;;;;;;;7.53;5.13;;;;;;;17.28;28.64;97776.59;5134397;28;20356;-32
2022/03/25 00:24:45;;;;;;;7.97;5.10;;;;;;;17.22;28.52;97778.31;5134230;28;20039;-31
2022/03/25 00:27:11;;;;;;;7.70;4.90;;;;;;;17.30;28.52;97768.69;5134314;28;20027;-32
2022/03/25 00:29:37;;;;;;;7.00;4.57;;;;;;;17.33;28.33;97775.25;5134136;28;20068;-31
2022/03/25 00:32:03;;;;;;;6.47;5.15;;;;;;;17.32;28.31;97771.75;5115756;28;20023;-31
2022/03/25 00:34:29;;;;;;;6.18;4.68;;;;;;;17.27;28.37;97766.03;5134455;28;20463;-31
2022/03/25 00:36:55;;;;;;;7.78;4.35;;;;;;;17.26;28.27;97767.25;5134187;28;20023;-32
2022/03/25 00:39:21;;;;;;;5.72;4.70;;;;;;;17.21;28.33;97769.31;5134088;28;20042;-31
2022/03/25 00:41:47;;;;;;;6.72;4.72;;;;;;;17.21;28.29;97763.84;5116343;28;20640;-32
2022/03/25 00:44:13;;;;;;;6.43;4.80;;;;;;;17.25;28.15;97761.00;5113873;28;20039;-31
2022/03/25 00:46:39;;;;;;;7.15;4.93;;;;;;;17.22;28.10;97759.13;5112874;28;20027;-31
2022/03/25 00:49:05;;;;;;;6.93;4.72;;;;;;;17.21;28.22;97754.84;5113173;28;20114;-31
2022/03/25 00:51:31;;;;;;;5.82;4.63;;;;;;;17.20;28.03;97756.81;5113438;28;20491;-32
2022/03/25 00:53:57;;;;;;;6.18;4.70;;;;;;;17.19;28.01;97760.00;5095265;28;20052;-31
2022/03/25 00:56:24;;;;;;;6.65;4.60;;;;;;;17.15;27.84;97751.91;5113248;28;20082;-32
2022/03/25 00:58:50;;;;;;;6.53;4.45;;;;;;;17.16;27.98;97752.66;5113585;28;20516;-31
2022/03/25 01:01:16;;;;;;;6.90;4.55;;;;;;;17.15;27.78;97756.63;5113312;28;20043;-31
2022/03/25 01:03:43;;;;;;;7.15;4.70;;;;;;;17.09;28.02;97748.16;5113631;28;20364;-32
2022/03/25 01:06:09;;;;;;;7.97;4.95;;;;;;;17.14;27.79;97746.84;5114155;28;20023;-31
2022/03/25 01:08:35;;;;;;;6.50;4.63;;;;;;;17.12;27.72;97755.50;5117381;28;20028;-31
2022/03/25 01:11:13;;;;;;;6.38;4.68;;;;;;;17.06;27.63;97746.28;5117328;28;20026;-31
2022/03/25 01:13:39;;;;;;;6.57;4.68;;;;;;;17.09;27.42;97739.94;5117282;28;20080;-32
2022/03/25 01:16:06;;;;;;;7.10;4.60;;;;;;;17.13;27.45;97737.09;5117138;28;20019;-32
2022/03/25 01:18:32;;;;;;;7.15;4.53;;;;;;;17.07;27.59;97742.34;5098910;28;20035;-31
2022/03/25 01:20:58;;;;;;;6.22;4.40;;;;;;;17.10;27.42;97735.22;5117098;28;20027;-31
2022/03/25 01:23:25;;;;;;;6.10;4.18;;;;;;;17.10;27.14;97735.97;5117388;28;20054;-31
2022/03/25 01:25:51;;;;;;;5.65;4.47;;;;;;;17.05;27.23;97733.03;5117132;28;20077;-31
2022/03/25 01:28:16;;;;;;;6.93;4.78;;;;;;;17.04;27.09;97739.72;5116895;28;20420;-32
2022/03/25 01:30:43;;;;;;;7.15;4.90;;;;;;;17.04;26.94;97731.50;5098694;28;20032;-31
2022/03/25 01:33:09;;;;;;;6.68;4.63;;;;;;;17.06;26.82;97723.63;5116758;28;20471;-33
2022/03/25 01:35:35;;;;;;;6.78;5.25;;;;;;;17.05;26.57;97724.81;5116894;28;20076;-32
2022/03/25 01:38:01;;;;;;;6.57;4.50;;;;;;;17.02;26.49;97720.19;5117012;28;20030;-31
2022/03/25 01:40:27;;;;;;;8.32;4.88;;;;;;;17.00;26.68;97719.88;5116850;28;20024;-31
2022/03/25 01:42:53;;;;;;;8.10;4.43;;;;;;;16.92;26.66;97722.06;5116748;28;20107;-32
2022/03/25 01:45:37;;;;;;;6.13;4.30;;;;;;;17.00;26.24;97711.66;5116540;28;20047;-33
2022/03/25 01:48:14;;;;;;;6.30;4.45;;;;;;;16.97;25.89;97712.50;5116461;28;20480;-32
2022/03/25 01:50:42;;;;;;;7.75;4.60;;;;;;;16.98;26.11;97700.34;5116634;28;20478;-31
2022/03/25 01:53:15;;;;;;;6.85;4.55;;;;;;;16.93;25.90;97709.13;5116292;28;20368;-31
2022/03/25 01:55:56;;;;;;;5.40;4.35;;;;;;;16.97;25.98;97707.03;5116731;28;20019;-31
2022/03/25 01:58:24;;;;;;;6.20;4.63;;;;;;;16.92;26.06;97704.84;5116562;28;20042;-31
2022/03/25 02:00:50;;;;;;;5.47;3.95;;;;;;;16.94;26.07;97703.19;5115985;28;20119;-31
2022/03/25 02:03:19;;;;;;;6.00;4.32;;;;;;;16.94;25.95;97705.94;5116471;28;20516;-32
2022/03/25 02:05:45;;;;;;;5.72;4.18;;;;;;;16.96;25.81;97700.00;5116149;28;20023;-32
2022/03/25 02:08:11;;;;;;;5.10;4.15;;;;;;;16.94;25.72;97699.72;5115952;28;20486;-31
2022/03/25 02:10:41;;;;;;;6.32;4.47;;;;;;;16.92;25.71;97707.59;5116043;28;20111;-31
2022/03/25 02:13:08;;;;;;;6.28;4.40;;;;;;;16.94;25.85;97711.41;5116153;28;20024;-31
2022/03/25 02:15:42;;;;;;;6.15;4.78;;;;;;;16.86;25.91;97705.38;5116002;28;20443;-31
2022/03/25 02:18:10;;;;;;;6.70;4.20;;;;;;;16.94;25.55;97702.44;5115527;28;20020;-31
2022/03/25 02:20:37;;;;;;;6.53;4.43;;;;;;;16.91;25.65;97706.06;5115972;28;20491;-31
2022/03/25 02:23:04;;;;;;;6.28;4.28;;;;;;;16.90;25.62;97702.53;5115905;28;20467;-31
2022/03/25 02:25:30;;;;;;;6.60;4.40;;;;;;;16.90;25.33;97696.28;5115852;28;20035;-31
2022/03/25 02:28:01;;;;;;;7.28;5.00;;;;;;;16.85;25.34;97701.09;5115552;28;20028;-33
2022/03/25 02:30:27;;;;;;;6.15;4.25;;;;;;;16.86;25.41;97694.44;5115740;28;20094;-31
2022/03/25 02:32:57;;;;;;;5.68;4.30;;;;;;;16.83;25.35;97689.81;5115567;28;20027;-32
2022/03/25 02:35:40;;;;;;;7.82;4.05;;;;;;;16.86;25.32;97697.16;5115598;28;20020;-31
2022/03/25 02:38:07;;;;;;;5.57;4.60;;;;;;;16.89;25.31;97698.28;5115558;28;20015;-32
2022/03/25 02:40:33;;;;;;;6.95;5.18;;;;;;;16.90;25.08;97688.84;5115560;28;20354;-31
2022/03/25 02:42:59;;;;;;;5.93;4.68;;;;;;;16.86;25.12;97693.66;5115347;28;20103;-32
2022/03/25 02:45:25;;;;;;;7.18;4.78;;;;;;;16.85;25.27;97687.41;5115511;28;20023;-32
2022/03/25 02:47:51;;;;;;;6.47;4.40;;;;;;;16.86;25.09;97690.91;5115414;28;20023;-31
2022/03/25 02:50:16;;;;;;;5.40;4.10;;;;;;;16.74;24.96;97681.47;5115447;28;20035;-32
2022/03/25 02:52:42;;;;;;;6.82;4.55;;;;;;;16.76;25.12;97690.03;5115454;28;20024;-31
2022/03/25 02:55:08;;;;;;;7.30;4.43;;;;;;;16.77;24.93;97686.09;5115204;28;20035;-33
2022/03/25 02:57:35;;;;;;;6.78;4.63;;;;;;;16.76;24.85;97687.28;5115121;28;20015;-31
2022/03/25 03:00:08;;;;;;;8.40;5.15;;;;;;;16.74;24.73;97686.19;5115051;28;20174;-31
2022/03/25 03:02:36;;;;;;;6.00;4.57;;;;;;;16.74;24.77;97686.19;5115143;28;20037;-31
2022/03/25 03:05:04;;;;;;;5.85;4.75;;;;;;;16.73;24.77;97679.94;5115018;28;20064;-31
2022/03/25 03:07:30;;;;;;;7.03;4.38;;;;;;;16.71;24.48;97687.06;5114719;28;20042;-31
2022/03/25 03:09:56;;;;;;;5.53;4.18;;;;;;;16.72;24.22;97689.38;5114907;28;20023;-31
2022/03/25 03:12:22;;;;;;;6.53;4.60;;;;;;;16.77;24.08;97691.56;5115198;28;20064;-32
2022/03/25 03:14:48;;;;;;;5.82;4.32;;;;;;;16.76;24.43;97684.56;5114879;28;20031;-31
2022/03/25 03:17:13;;;;;;;7.07;4.43;;;;;;;16.76;24.31;97689.25;5114971;28;20383;-31
2022/03/25 03:19:39;;;;;;;5.97;4.57;;;;;;;16.74;24.30;97680.72;5114956;28;20056;-31
2022/03/25 03:22:05;;;;;;;7.07;4.82;;;;;;;16.73;24.26;97693.63;5114646;28;20096;-31
2022/03/25 03:24:31;;;;;;;7.50;4.40;;;;;;;16.73;24.20;97693.63;5114655;28;20031;-31
2022/03/25 03:26:58;;;;;;;4.72;3.95;;;;;;;16.70;24.20;97691.75;5114590;28;20412;-31
2022/03/25 03:29:24;;;;;;;5.32;4.25;;;;;;;16.71;24.31;97692.53;5113744;28;20045;-32
2022/03/25 03:31:50;;;;;;;6.25;4.55;;;;;;;16.72;24.35;97689.38;5114451;28;20031;-31
2022/03/25 03:34:16;;;;;;;6.60;4.65;;;;;;;16.67;23.96;97692.66;5096217;28;20050;-32
2022/03/25 03:36:42;;;;;;;6.05;4.38;;;;;;;16.65;24.01;97688.81;5114785;28;20460;-31
2022/03/25 03:39:07;;;;;;;6.88;4.80;;;;;;;16.71;24.20;97698.78;5114376;28;20034;-32
2022/03/25 03:41:33;;;;;;;5.38;4.00;;;;;;;16.70;24.19;97694.50;5114221;28;20023;-31
2022/03/25 03:43:58;;;;;;;6.18;4.43;;;;;;;16.73;24.03;97690.13;5114600;28;20476;-31
2022/03/25 03:46:24;;;;;;;5.93;4.00;;;;;;;16.68;23.97;97698.91;5114265;28;20144;-31
2022/03/25 03:48:50;;;;;;;6.35;4.03;;;;;;;16.63;23.93;97694.72;5114408;28;20095;-31
2022/03/25 03:51:16;;;;;;;5.80;4.30;;;;;;;16.72;24.15;97692.09;5114194;28;20023;-31
2022/03/25 03:53:41;;;;;;;6.10;4.15;;;;;;;16.71;24.38;97698.00;5114175;28;20023;-32
2022/03/25 03:56:07;;;;;;;7.15;4.40;;;;;;;16.67;24.11;97703.63;5114170;28;20019;-31
2022/03/25 03:58:33;;;;;;;7.20;4.15;;;;;;;16.62;23.66;97690.44;5114419;28;20026;-31
2022/03/25 04:00:58;;;;;;;6.15;4.30;;;;;;;16.67;23.84;97706.34;5113507;28;20415;-31
2022/03/25 04:03:25;;;;;;;6.93;4.35;;;;;;;16.58;24.19;97697.19;5114311;28;20436;-31
2022/03/25 04:05:50;;;;;;;5.57;4.40;;;;;;;16.59;23.90;97699.50;5113963;28;20020;-31
2022/03/25 04:08:16;;;;;;;7.75;4.38;;;;;;;16.61;24.03;97699.84;5114214;28;20029;-31
2022/03/25 04:10:41;;;;;;;8.93;4.53;;;;;;;16.59;23.66;97699.50;5114106;28;20023;-33
2022/03/25 04:13:07;;;;;;;6.78;4.20;;;;;;;16.64;23.74;97698.22;5114028;28;20024;-31
2022/03/25 04:15:34;;;;;;;6.28;4.18;;;;;;;16.64;23.72;97690.78;5114074;28;20027;-31
2022/03/25 04:18:00;;;;;;;6.00;4.13;;;;;;;16.52;23.73;97694.25;5113762;28;20026;-31
2022/03/25 04:20:26;;;;;;;5.80;4.15;;;;;;;16.63;23.45;97692.00;5113832;28;20460;-31
2022/03/25 04:22:52;;;;;;;7.28;4.90;;;;;;;16.64;23.43;97690.00;5113770;28;20153;-31
2022/03/25 04:25:18;;;;;;;5.65;3.92;;;;;;;16.60;23.47;97692.06;5114216;28;20077;-31
2022/03/25 04:27:55;;;;;;;6.63;4.38;;;;;;;16.56;23.40;97694.91;5113579;28;20125;-32
2022/03/25 04:30:25;;;;;;;7.38;4.70;;;;;;;16.60;23.47;97700.28;5113973;28;20131;-31
2022/03/25 04:32:51;;;;;;;6.28;3.80;;;;;;;16.57;23.65;97699.16;5113724;28;20088;-31
2022/03/25 04:35:17;;;;;;;5.07;3.90;;;;;;;16.61;23.60;97702.56;5095564;28;20540;-31
2022/03/25 04:37:43;;;;;;;7.13;4.03;;;;;;;16.63;23.62;97704.91;5095358;28;20103;-31
2022/03/25 04:40:17;;;;;;;7.10;4.43;;;;;;;16.59;23.36;97712.41;5113872;28;20080;-31
2022/03/25 04:42:44;;;;;;;6.18;4.28;;;;;;;16.64;23.54;97704.47;5117406;28;20038;-31
2022/03/25 04:45:10;;;;;;;7.40;4.95;;;;;;;16.56;23.63;97711.34;5117850;28;20442;-31
2022/03/25 04:47:35;;;;;;;8.60;4.55;;;;;;;16.53;23.30;97712.97;5117622;28;20098;-31
2022/03/25 04:50:02;;;;;;;7.50;4.30;;;;;;;16.55;23.32;97707.06;5117891;28;20080;-34
2022/03/25 04:52:28;;;;;;;5.80;4.05;;;;;;;16.53;23.40;97704.75;5117678;28;20028;-32
2022/03/25 04:54:53;;;;;;;6.55;4.65;;;;;;;16.51;23.18;97706.38;5117580;28;20096;-31
2022/03/25 04:57:19;;;;;;;5.78;4.22;;;;;;;16.48;23.29;97713.50;5117542;28;20026;-31
2022/03/25 04:59:44;;;;;;;5.40;4.50;;;;;;;16.52;23.29;97711.44;5117459;28;20047;-32
2022/03/25 05:02:10;;;;;;;7.47;4.60;;;;;;;16.53;23.25;97704.75;5117669;28;20027;-32
2022/03/25 05:04:36;;;;;;;6.72;4.32;;;;;;;16.55;23.26;97706.31;5117372;28;20023;-31
2022/03/25 05:07:02;;;;;;;8.32;4.93;;;;;;;16.57;23.14;97704.63;5117358;28;20030;-31
2022/03/25 05:09:28;;;;;;;6.22;4.38;;;;;;;16.48;23.13;97708.03;5117298;28;20429;-31
2022/03/25 05:11:54;;;;;;;5.68;4.53;;;;;;;16.52;23.06;97710.66;5117488;28;20016;-31
2022/03/25 05:14:20;;;;;;;5.72;4.20;;;;;;;16.57;23.17;97718.31;5117516;28;20024;-31
2022/03/25 05:16:52;;;;;;;7.70;4.95;;;;;;;16.48;23.11;97710.00;5117354;28;20153;-32
2022/03/25 05:19:20;;;;;;;5.85;4.80;;;;;;;16.50;23.19;97715.81;5117377;28;20027;-31
2022/03/25 05:21:48;;;;;;;7.93;5.07;;;;;;;16.52;23.42;97710.66;5117315;28;20471;-32
2022/03/25 05:24:14;;;;;;;12.63;6.45;;;;;;;16.55;23.23;97709.81;5117129;28;20032;-31
2022/03/25 05:26:40;;;;;;;10.20;5.82;;;;;;;16.48;23.09;97718.97;5116993;28;20024;-31
2022/03/25 05:29:06;;;;;;;8.25;5.55;;;;;;;16.46;23.29;97720.59;5116915;28;20023;-31
2022/03/25 05:31:32;;;;;;;9.90;5.45;;;;;;;16.45;23.38;97722.56;5117004;28;20030;-31
2022/03/25 05:33:57;;;;;;;8.65;5.13;;;;;;;16.53;23.26;97725.91;5117023;28;20468;-31
2022/03/25 05:36:23;;;;;;;10.00;5.47;;;;;;;16.47;23.19;97722.16;5116287;28;20023;-31
2022/03/25 05:38:51;;;;;;;10.07;6.10;;;;;;;16.44;23.11;97723.78;5116772;28;20031;-32
2022/03/25 05:41:17;;;;;;;10.85;5.75;;;;;;;16.40;23.20;97720.38;5116595;28;20094;-32
2022/03/25 05:43:43;;;;;;;11.40;5.78;;;;;;;16.41;23.25;97723.91;5120048;27;20022;-31
2022/03/25 05:46:08;;;;;;;9.00;5.32;;;;;;;16.43;23.16;97721.50;5135061;27;20022;-31
2022/03/25 05:48:34;;;;;;;10.32;5.60;;;;;;;16.44;23.14;97723.03;5115923;27;20031;-32
2022/03/25 05:51:00;;;;;;;12.88;5.97;;;;;;;16.40;23.33;97727.81;5114639;28;20489;-31
2022/03/25 05:53:26;;;;;;;10.70;5.57;;;;;;;16.46;23.07;97728.81;5095210;28;20043;-31
2022/03/25 05:55:52;;;;;;;9.32;5.43;;;;;;;16.39;23.22;97726.28;5095843;28;20089;-31
2022/03/25 05:58:18;;;;;;;8.75;5.13;;;;;;;16.40;22.95;97727.81;5112505;28;20019;-31
2022/03/25 06:00:43;;;;;;;8.63;4.85;;;;;;;16.38;23.04;97731.00;5114652;27;20090;-32
2022/03/25 06:03:10;;;;;;;8.60;4.80;;;;;;;16.42;23.08;97734.41;5134730;27;20027;-31
2022/03/25 06:05:36;;;;;;;8.25;5.88;;;;;;;16.40;22.89;97738.78;5134779;27;20509;-32
2022/03/25 06:08:02;;;;;;;8.30;4.97;;;;;;;16.40;23.10;97738.78;5134504;27;20027;-31
2022/03/25 06:10:27;;;;;;;8.00;5.55;;;;;;;16.34;23.09;97740.50;5134764;27;20454;-31
2022/03/25 06:12:53;;;;;;;8.63;5.18;;;;;;;16.37;22.96;97739.63;5134657;27;20038;-31
2022/03/25 06:15:19;;;;;;;9.52;5.25;;;;;;;16.46;23.12;97739.78;5134728;27;20023;-31
2022/03/25 06:17:49;;;;;;;8.48;5.22;;;;;;;16.39;23.25;97737.25;5134329;27;20023;-31
2022/03/25 06:20:18;;;;;;;9.10;5.20;;;;;;;16.36;23.24;97746.31;5133653;27;20030;-31
2022/03/25 06:22:44;;;;;;;9.38;5.45;;;;;;;16.34;23.16;97740.50;5117929;27;20036;-31
2022/03/25 06:25:12;;;;;;;9.20;5.28;;;;;;;16.37;23.09;97739.63;5113936;28;20467;-31
2022/03/25 06:27:48;;;;;;;8.93;5.43;;;;;;;16.32;23.20;97745.66;5113601;28;20114;-31
2022/03/25 06:30:14;;;;;;;7.10;4.97;;;;;;;16.34;23.21;97745.97;5113767;28;20498;-31
2022/03/25 06:32:41;;;;;;;8.57;5.07;;;;;;;16.36;23.22;97743.56;5113710;28;20774;-31
2022/03/25 06:35:07;;;;;;;9.98;5.57;;;;;;;16.38;23.22;97741.19;5095529;28;20472;-31
2022/03/25 06:37:33;;;;;;;8.48;5.32;;;;;;;16.36;23.15;97736.13;5116708;27;20030;-31
2022/03/25 06:39:59;;;;;;;7.20;5.25;;;;;;;16.38;23.30;97741.19;5134078;27;20027;-31
2022/03/25 06:42:25;;;;;;;10.30;5.18;;;;;;;16.41;23.32;97741.09;5134143;27;20054;-33
2022/03/25 06:44:50;;;;;;;9.32;6.00;;;;;;;16.43;23.31;97738.69;5133584;27;20025;-31
2022/03/25 06:47:16;;;;;;;8.95;5.38;;;;;;;16.36;23.52;97738.09;5133979;27;20054;-32
2022/03/25 06:49:42;;;;;;;9.85;5.43;;;;;;;16.39;23.50;97748.97;5133726;27;20094;-31
2022/03/25 06:52:08;;;;;;;12.35;5.93;;;;;;;16.34;23.51;97745.97;5134015;27;20068;-32
2022/03/25 06:54:34;;;;;;;12.68;6.20;;;;;;;16.39;23.84;97748.19;5133654;27;20035;-32
2022/03/25 06:57:01;;;;;;;9.45;6.35;;;;;;;16.36;23.88;97749.06;5131892;27;20023;-31
2022/03/25 06:59:27;;;;;;;12.70;6.35;;;;;;;16.39;23.92;97750.94;5133531;27;20038;-31
2022/03/25 07:01:53;;;;;;;9.02;6.45;;;;;;;16.36;24.08;97746.31;5133661;27;20023;-31
2022/03/25 07:04:19;;;;;;;12.30;6.70;;;;;;;16.38;24.06;97752.91;5133394;27;20106;-31
2022/03/25 07:06:48;;;;;;;12.05;6.25;;;;;;;16.42;24.35;97753.59;5133610;27;20145;-31
2022/03/25 07:09:15;;;;;;;11.75;7.07;;;;;;;16.45;24.35;97752.69;5133225;27;20106;-31
2022/03/25 07:11:42;;;;;;;10.82;6.75;;;;;;;16.44;24.47;97753.88;5133516;27;20074;-32
2022/03/25 07:14:08;;;;;;;9.35;6.20;;;;;;;16.41;24.64;97746.56;5133381;27;20098;-31
2022/03/25 07:16:34;;;;;;;8.80;6.25;;;;;;;16.45;24.80;97741.75;5114712;27;20130;-31
2022/03/25 07:18:59;;;;;;;13.55;7.03;;;;;;;16.43;24.83;97746.91;5132713;27;20023;-32
2022/03/25 07:21:25;;;;;;;11.63;7.00;;;;;;;16.34;25.06;97752.22;5133274;27;20033;-32
2022/03/25 07:23:51;;;;;;;13.82;6.57;;;;;;;16.30;25.24;97748.81;5133393;27;20030;-31
2022/03/25 07:26:17;;;;;;;10.13;6.25;;;;;;;16.38;25.12;97746.66;5133172;27;20047;-31
2022/03/25 07:28:43;;;;;;;10.18;6.28;;;;;;;16.33;25.23;97749.91;5133126;27;20039;-31
2022/03/25 07:31:09;;;;;;;9.60;6.35;;;;;;;16.28;25.26;97756.69;5132778;27;20026;-31
2022/03/25 07:33:35;;;;;;;10.25;6.30;;;;;;;16.31;25.11;97746.84;5114828;27;20477;-31
2022/03/25 07:36:01;;;;;;;9.38;5.47;;;;;;;16.38;25.44;97758.38;5132904;27;20019;-31
2022/03/25 07:38:28;;;;;;;8.32;5.93;;;;;;;16.30;25.38;97748.06;5132695;27;20023;-32
2022/03/25 07:40:55;;;;;;;8.95;5.63;;;;;;;16.26;25.50;97761.06;5132583;27;20070;-31
2022/03/25 07:43:20;;;;;;;7.38;5.35;;;;;;;16.30;25.50;97757.03;5132505;27;20034;-33
2022/03/25 07:45:46;;;;;;;10.13;5.88;;;;;;;16.26;25.68;97766.53;5132698;27;20035;-32
2022/03/25 07:48:12;;;;;;;10.60;5.93;;;;;;;16.31;25.64;97758.56;5132879;27;20110;-31
2022/03/25 07:50:37;;;;;;;9.98;5.57;;;;;;;16.31;25.66;97747.63;5132812;27;20044;-32
2022/03/25 07:53:03;;;;;;;7.40;5.65;;;;;;;16.35;25.89;97766.69;5132677;27;20368;-31
2022/03/25 07:55:29;;;;;;;10.25;5.68;;;;;;;16.36;25.77;97770.94;5132372;27;20023;-32
2022/03/25 07:57:56;;;;;;;10.93;5.63;;;;;;;16.34;25.84;97762.41;5130731;27;20027;-31
2022/03/25 08:00:22;;;;;;;10.27;5.78;;;;;;;16.33;25.89;97771.81;5132161;27;20127;-31
2022/03/25 08:02:52;;;;;;;8.68;4.90;;;;;;;16.41;25.94;97764.97;5132677;27;20054;-31
2022/03/25 08:05:18;;;;;;;7.45;5.35;;;;;;;16.31;26.32;97772.25;5121105;27;20533;-31
2022/03/25 08:07:54;;;;;;;7.97;5.57;;;;;;;16.30;26.33;97769.97;5113708;28;20024;-32
2022/03/25 08:10:24;;;;;;;7.90;5.88;;;;;;;16.26;26.25;97772.00;5114343;28;20023;-31
2022/03/25 08:12:51;;;;;;;10.38;5.82;;;;;;;16.33;26.35;97771.81;5113735;28;20038;-31
2022/03/25 08:15:18;;;;;;;10.05;6.07;;;;;;;16.33;26.32;97778.06;5113620;28;20098;-31
2022/03/25 08:17:55;;;;;;;8.10;5.60;;;;;;;16.19;26.66;97783.16;5113431;28;20090;-31
2022/03/25 08:20:39;;;;;;;8.60;6.25;;;;;;;16.17;26.97;97778.09;5113892;28;20094;-31
2022/03/25 08:23:07;;;;;;;6.55;5.30;;;;;;;16.32;26.61;97784.72;5113801;28;20016;-31
2022/03/25 08:28:19;;;;;;;9.48;5.32;;;;;;;16.19;26.92;97783.94;5113800;28;20494;-31
2022/03/25 08:30:48;;;;;;;11.40;6.38;;;;;;;16.19;26.95;97777.69;5113797;28;20455;-31
2022/03/25 08:33:14;;;;;;;9.80;6.03;;;;;;;16.19;26.91;97783.16;5114008;28;20035;-31
2022/03/25 08:35:41;;;;;;;8.25;6.40;;;;;;;16.27;26.79;97779.78;5113757;28;20024;-32
2022/03/25 08:38:09;;;;;;;7.85;5.78;;;;;;;16.06;27.33;97778.38;5113593;28;20016;-32
2022/03/25 08:40:35;;;;;;;8.07;6.03;;;;;;;15.93;27.43;97783.00;5113660;28;20059;-31
2022/03/25 08:43:05;;;;;;;7.35;5.47;;;;;;;16.11;27.01;97777.84;5114186;28;20433;-31
2022/03/25 08:45:31;;;;;;;10.85;6.32;;;;;;;15.22;27.62;97783.84;5113599;28;20024;-31
2022/03/25 08:47:58;;;;;;;9.05;5.78;;;;;;;15.67;27.74;97784.03;5113369;28;20110;-31
2022/03/25 08:50:24;;;;;;;8.90;5.93;;;;;;;15.70;27.73;97781.19;5113152;28;20041;-31
2022/03/25 08:52:52;;;;;;;8.45;6.00;;;;;;;15.96;27.25;97778.63;5113540;28;20024;-31
2022/03/25 08:55:20;;;;;;;8.77;5.95;;;;;;;15.92;27.07;97781.47;5112651;28;20028;-32
2022/03/25 08:57:47;;;;;;;11.02;5.90;;;;;;;15.98;27.31;97779.75;5112772;28;20019;-31
2022/03/25 09:00:15;;;;;;;9.48;5.45;;;;;;;16.09;27.16;97774.00;5113229;28;20052;-32
2022/03/25 09:02:43;;;;;;;11.70;6.22;;;;;;;16.10;27.23;97778.28;5095127;28;20357;-31
2022/03/25 09:05:10;;;;;;;9.98;7.25;;;;;;;16.23;27.02;97775.59;5113670;28;20064;-31
2022/03/25 09:07:37;;;;;;;9.00;6.22;;;;;;;16.27;26.86;97777.06;5113326;28;20081;-31
2022/03/25 09:10:10;;;;;;;9.95;5.88;;;;;;;16.25;27.06;97773.22;5113538;28;20027;-31
2022/03/25 09:12:37;;;;;;;7.80;5.88;;;;;;;16.26;26.98;97782.97;5113438;28;20023;-31
2022/03/25 09:15:06;;;;;;;8.38;5.78;;;;;;;16.18;27.00;97776.91;5113543;28;20432;-31
2022/03/25 09:17:32;;;;;;;10.82;5.60;;;;;;;16.33;26.80;97778.06;5113388;28;20023;-31
2022/03/25 09:19:57;;;;;;;6.82;5.55;;;;;;;16.23;27.04;97779.09;5113365;28;20028;-32
2022/03/25 09:22:23;;;;;;;8.85;5.85;;;;;;;16.34;26.96;97776.09;5113278;28;20499;-31
2022/03/25 09:24:49;;;;;;;7.38;5.18;;;;;;;16.44;26.84;97780.53;5113283;28;20111;-31
2022/03/25 09:27:15;;;;;;;8.38;5.57;;;;;;;16.54;26.73;97774.00;5114392;28;20019;-31
2022/03/25 09:29:40;;;;;;;8.73;5.80;;;;;;;16.56;26.72;97779.03;5116899;28;20074;-32
2022/03/25 09:32:06;;;;;;;6.57;5.60;;;;;;;16.28;26.95;97775.09;5117163;28;20023;-31
2022/03/25 09:37:16;;;;;;;7.90;5.25;;;;;;;16.47;26.84;97772.19;5117096;28;20580;-31
2022/03/25 09:39:42;;;;;;;7.28;5.50;;;;;;;16.58;26.77;97766.44;5116819;28;20035;-31
2022/03/25 09:42:08;;;;;;;7.28;4.88;;;;;;;16.38;27.03;97768.56;5116724;28;20110;-32
2022/03/25 09:44:34;;;;;;;7.72;5.35;;;;;;;16.38;27.21;97761.13;5116590;28;20472;-31
2022/03/25 09:47:01;;;;;;;7.90;5.30;;;;;;;16.51;27.01;97769.38;5116635;28;20028;-31
2022/03/25 09:49:27;;;;;;;7.78;5.13;;;;;;;16.62;26.89;97767.13;5116871;28;20080;-32
2022/03/25 09:51:52;;;;;;;6.25;5.35;;;;;;;16.60;27.07;97758.56;5116880;28;20023;-31
2022/03/25 09:54:19;;;;;;;9.00;5.20;;;;;;;16.67;27.00;97763.88;5116467;28;20023;-32
2022/03/25 09:56:45;;;;;;;7.03;5.25;;;;;;;16.68;26.87;97764.66;5116636;28;20043;-32
2022/03/25 09:59:16;;;;;;;7.00;5.30;;;;;;;16.62;27.01;97761.66;5116410;28;20459;-31
2022/03/25 10:01:42;;;;;;;10.07;4.78;;;;;;;16.49;27.35;97756.13;5116493;28;20126;-31
2022/03/25 10:04:07;;;;;;;7.32;5.20;;;;;;;16.52;27.07;97758.00;5123282;27;20507;-33
2022/03/25 10:06:45;;;;;;;8.02;4.65;;;;;;;16.60;27.08;97758.56;5135700;27;20027;-31
2022/03/25 10:09:21;;;;;;;5.95;4.85;;;;;;;16.53;27.25;97753.28;5137050;27;20458;-31
2022/03/25 10:11:46;;;;;;;8.32;5.18;;;;;;;16.66;27.19;97748.66;5136866;27;20027;-31
2022/03/25 10:14:19;;;;;;;6.93;4.80;;;;;;;16.63;27.27;97751.47;5118670;27;20142;-32
2022/03/25 10:16:47;;;;;;;6.72;5.20;;;;;;;16.64;27.25;97740.09;5136714;27;20022;-31
2022/03/25 10:19:16;;;;;;;7.07;5.32;;;;;;;16.57;27.57;97739.50;5136646;27;20374;-31
2022/03/25 10:21:59;;;;;;;8.55;5.30;;;;;;;16.62;27.32;97739.75;5136833;27;20050;-32
2022/03/25 10:24:40;;;;;;;6.47;4.70;;;;;;;16.73;27.09;97737.47;5136853;27;20071;-31
2022/03/25 10:27:07;;;;;;;6.57;4.85;;;;;;;16.70;27.31;97740.31;5136450;27;20023;-31
2022/03/25 10:29:35;;;;;;;7.07;5.40;;;;;;;16.76;26.99;97744.06;5136363;27;20019;-31
2022/03/25 10:32:12;;;;;;;9.00;5.30;;;;;;;16.74;27.18;97736.28;5136454;27;20110;-31
2022/03/25 10:34:40;;;;;;;6.50;5.10;;;;;;;16.79;27.20;97737.72;5136376;27;20015;-31
2022/03/25 10:37:12;;;;;;;8.25;5.13;;;;;;;16.83;27.08;97741.09;5136288;27;20023;-31
2022/03/25 10:39:39;;;;;;;9.55;5.80;;;;;;;16.80;27.21;97740.03;5135487;27;20374;-32
2022/03/25 10:42:08;;;;;;;9.55;5.70;;;;;;;16.79;27.10;97733.00;5136192;27;20023;-32
2022/03/25 10:44:42;;;;;;;6.32;4.90;;;;;;;16.78;27.22;97731.47;5136390;27;20025;-31
2022/03/25 10:47:29;;;;;;;11.70;5.50;;;;;;;16.77;27.23;97734.63;5136087;27;20023;-31
2022/03/25 10:50:12;;;;;;;7.45;5.55;;;;;;;16.82;27.11;97726.63;5136022;27;20035;-31
2022/03/25 10:52:37;;;;;;;;;;;;;;;16.80;27.32;97729.06;5136279;27;20035;-31
2022/03/25 10:55:20;;;;;;;7.60;4.97;;;;;;;16.80;27.31;97726.31;5136126;27;20286;-32
2022/03/25 10:57:54;;;;;;;7.80;5.27;;;;;;;16.77;27.41;97724.44;5135836;27;20019;-31
2022/03/25 11:00:21;;;;;;;7.07;5.30;;;;;;;16.81;27.14;97719.63;5135584;27;20043;-31
2022/03/25 11:02:47;;;;;;;6.78;5.25;;;;;;;16.85;27.19;97716.78;5135512;27;20018;-31
2022/03/25 11:05:14;;;;;;;11.02;5.30;;;;;;;16.87;27.16;97717.88;5135689;27;20414;-31
2022/03/25 11:07:45;;;;;;;8.65;6.00;;;;;;;16.84;27.16;97718.75;5135713;27;20102;-32
2022/03/25 11:10:13;;;;;;;8.48;5.78;;;;;;;16.83;27.30;97719.94;5117351;27;20027;-32
2022/03/25 11:12:49;;;;;;;7.82;4.85;;;;;;;16.85;27.08;97716.78;5135718;27;20360;-31
2022/03/25 11:15:20;;;;;;;7.53;5.55;;;;;;;16.83;27.27;97714.47;5135932;27;20035;-32
2022/03/25 11:17:46;;;;;;;9.35;5.55;;;;;;;16.84;26.97;97707.03;5135338;27;20070;-31
2022/03/25 11:20:14;;;;;;;7.40;5.00;;;;;;;16.92;26.92;97710.34;5135474;27;20118;-31
2022/03/25 11:23:09;;;;;;;11.65;5.38;;;;;;;16.93;26.76;97698.94;5135350;27;20026;-31
2022/03/25 11:25:51;;;;;;;8.40;5.13;;;;;;;16.95;26.78;97703.97;5126241;27;20046;-31
2022/03/25 11:28:27;;;;;;;7.63;5.57;;;;;;;16.90;26.86;97696.28;5135038;27;20019;-31
2022/03/25 11:31:19;;;;;;;7.22;5.53;;;;;;;16.84;26.92;97696.81;5135734;27;20031;-32
2022/03/25 11:34:09;;;;;;;7.85;5.55;;;;;;;16.83;26.76;97698.03;5130258;27;20087;-33
2022/03/25 11:36:40;;;;;;;10.85;5.53;;;;;;;16.85;26.70;97689.38;5135310;27;20027;-31
2022/03/25 11:39:24;;;;;;;7.40;5.35;;;;;;;16.82;26.68;97682.78;5135095;27;20019;-31